Time;durP1;ratioP1;P1;durP2;ratioP2;P2;SDS_P1;SDS_P2;PMS_P1;PMS_P2;Temp;Humidity;BMP_temperature;BMP_pressure;BME280_temperature;BME280_humidity;BME280_pressure;Samples;Min_cycle;Max_cycle;Signal;HPM_P1;HPM_P2
2023/01/26 00:01:18;;;;;;;;;;;;;;;-0.56;100.00;100844.66;5007179;28;20480;-60
2023/01/26 00:03:44;;;;;;;;;;;;;;;-0.63;100.00;100842.06;5024487;28;19929;-61
2023/01/26 00:06:10;;;;;;;;;;;;;;;-0.65;100.00;100835.34;5030474;28;20391;-62
2023/01/26 00:08:36;;;;;;;;;;;;;;;-0.71;100.00;100830.28;5030918;28;19925;-61
2023/01/26 00:11:02;;;;;;;;;;;;;;;-0.64;100.00;100821.03;5021974;28;20393;-60
2023/01/26 00:13:27;;;;;;;;;;;;;;;-0.64;100.00;100821.03;5033568;28;19924;-63
2023/01/26 00:15:52;;;;;;;;;;;;;;;-0.68;100.00;100816.81;5017413;28;19929;-60
2023/01/26 00:18:18;;;;;;;;;;;;;;;-0.63;100.00;100827.78;5026634;28;20451;-63
2023/01/26 00:20:43;;;;;;;;;;;;;;;-0.52;100.00;100825.25;5013782;28;19930;-60
2023/01/26 00:23:08;;;;;;;;;;;;;;;-0.53;100.00;100816.84;5004576;28;20411;-60
2023/01/26 00:25:36;;;;;;;;;;;;;;;-0.45;100.00;100816.88;4998433;28;19932;-60
2023/01/26 00:28:01;;;;;;;;;;;;;;;-0.49;100.00;100816.00;5014673;28;19917;-60
2023/01/26 00:30:26;;;;;;;;;;;;;;;-0.72;100.00;100828.59;5007804;28;20411;-60
2023/01/26 00:32:51;;;;;;;;;;;;;;;-0.63;100.00;100819.34;5033897;28;19917;-60
2023/01/26 00:35:16;;;;;;;;;;;;;;;-0.63;100.00;100816.81;5034360;28;19924;-60
2023/01/26 00:37:42;;;;;;;;;;;;;;;-0.76;100.00;100814.25;5034281;28;20419;-60
2023/01/26 00:40:08;;;;;;;;;;;;;;;-0.77;100.00;100822.69;5023833;28;19956;-60
2023/01/26 00:42:33;;;;;;;;;;;;;;;-0.75;100.00;100820.16;5036515;28;19923;-60
2023/01/26 00:44:58;;;;;;;;;;;;;;;-0.75;100.00;100817.63;5035228;28;19921;-60
2023/01/26 00:47:23;;;;;;;;;;;;;;;-0.73;100.00;100811.75;5034302;28;19971;-60
2023/01/26 00:49:48;;;;;;;;;;;;;;;-0.69;100.00;100802.50;5034364;28;19957;-60
2023/01/26 00:52:14;;;;;;;;;;;;;;;-0.83;100.00;100810.84;5022539;28;19932;-60
2023/01/26 00:54:39;;;;;;;;;;;;;;;-0.84;100.00;100814.22;5034181;28;19921;-59
2023/01/26 00:57:04;;;;;;;;;;;;;;;-0.82;100.00;100811.69;5034121;28;20037;-60
2023/01/26 00:59:31;;;;;;;;;;;;;;;-0.68;100.00;100809.25;5020723;28;19921;-59
2023/01/26 01:01:57;;;;;;;;;;;;;;;-0.67;100.00;100805.84;5022821;28;19968;-60
2023/01/26 01:04:22;;;;;;;;;;;;;;;-0.70;100.00;100808.38;5016401;28;19959;-60
2023/01/26 01:06:47;;;;;;;;;;;;;;;-0.63;100.00;100814.28;5032727;28;20039;-60
2023/01/26 01:09:12;;;;;;;;;;;;;;;-0.62;100.00;100816.84;5016227;28;20359;-59
2023/01/26 01:11:37;;;;;;;;;;;;;;;-0.63;100.00;100816.81;5022214;28;20352;-60
2023/01/26 01:14:03;;;;;;;;;;;;;;;-0.74;100.00;100812.56;5032577;28;19921;-60
2023/01/26 01:16:28;;;;;;;;;;;;;;;-0.77;100.00;100816.78;5033878;28;20004;-59
2023/01/26 01:18:54;;;;;;;;;;;;;;;-0.77;100.00;100826.88;5033920;28;19921;-60
2023/01/26 01:21:19;;;;;;;;;;;;;;;-0.80;100.00;100819.31;5023259;28;19928;-59
2023/01/26 01:23:45;;;;;;;;;;;;;;;-0.88;100.00;100816.72;5031561;28;19925;-60
2023/01/26 01:26:10;;;;;;;;;;;;;;;-0.84;100.00;100815.91;5033284;28;19928;-59
2023/01/26 01:28:36;;;;;;;;;;;;;;;-0.81;100.00;100820.97;5016169;28;20062;-60
2023/01/26 01:31:04;;;;;;;;;;;;;;;-0.89;100.00;100817.59;5023631;28;19921;-60
2023/01/26 01:33:30;;;;;;;;;;;;;;;-0.91;100.00;100815.03;5030847;28;19921;-59
2023/01/26 01:35:59;;;;;;;;;;;;;;;-1.12;100.00;100814.94;5033304;28;20396;-60
2023/01/26 01:38:24;;;;;;;;;;;;;;;-1.12;100.00;100807.38;5033389;28;19921;-60
2023/01/26 01:40:50;;;;;;;;;;;;;;;-1.18;100.00;100819.13;5022984;28;20016;-59
2023/01/26 01:43:15;;;;;;;;;;;;;;;-1.20;100.00;100813.22;5033440;28;19952;-59
2023/01/26 01:45:42;;;;;;;;;;;;;;;-1.15;100.00;100814.06;5033556;28;19961;-59
2023/01/26 01:48:12;;;;;;;;;;;;;;;-1.14;100.00;100810.72;5032862;28;19917;-60
2023/01/26 01:50:38;;;;;;;;;;;;;;;-1.14;100.00;100810.72;5001979;28;19929;-59
2023/01/26 01:53:04;;;;;;;;;;;;;;;-1.20;100.00;100804.81;5021293;28;19971;-60
2023/01/26 01:55:30;;;;;;;;;;;;;;;-1.21;100.00;100805.63;5032914;28;19924;-60
2023/01/26 01:57:57;;;;;;;;;;;;;;;-1.15;100.00;100800.63;5014770;28;19917;-59
2023/01/26 02:00:23;;;;;;;;;;;;;;;-1.27;100.00;100798.88;4999288;28;19987;-59
2023/01/26 02:03:17;;;;;;;;;;;;;;;-1.25;100.00;100793.81;5011058;28;20012;-59
2023/01/26 02:06:02;;;;;;;;;;;;;;;-1.11;100.00;100791.38;5010462;28;19929;-65
2023/01/26 02:08:32;;;;;;;;;;;;;;;-1.16;100.00;100796.41;5012064;28;19933;-60
2023/01/26 02:10:59;;;;;;;;;;;;;;;-1.17;100.00;100798.06;5017514;28;19924;-60
2023/01/26 02:13:25;;;;;;;;;;;;;;;-1.15;100.00;100798.94;5051945;28;19923;-59
2023/01/26 02:15:50;;;;;;;;;;;;;;;-1.20;100.00;100792.19;5052249;28;19917;-66
2023/01/26 02:18:15;;;;;;;;;;;;;;;-1.13;100.00;100786.31;5034949;28;19940;-60
2023/01/26 02:20:49;;;;;;;;;;;;;;;-1.26;100.00;100789.63;5042451;28;19928;-60
2023/01/26 02:23:33;;;;;;;;;;;;;;;-1.31;100.00;100784.56;5050721;28;19948;-60
2023/01/26 02:26:10;;;;;;;;;;;;;;;-1.28;100.00;100776.16;5052074;28;19948;-60
2023/01/26 02:28:35;;;;;;;;;;;;;;;-1.17;100.00;100780.41;5052775;28;19917;-59
2023/01/26 02:31:02;;;;;;;;;;;;;;;-1.19;100.00;100777.03;5041585;28;19921;-59
2023/01/26 02:33:28;;;;;;;;;;;;;;;-1.15;100.00;100777.91;5051012;28;19927;-60
2023/01/26 02:35:53;;;;;;;;;;;;;;;-1.24;100.00;100765.22;5051983;28;20287;-60
2023/01/26 02:38:20;;;;;;;;;;;;;;;-1.28;100.00;100769.41;5052445;28;19917;-60
2023/01/26 02:40:50;;;;;;;;;;;;;;;-1.31;100.00;100772.75;5020877;28;20383;-59
2023/01/26 02:43:15;;;;;;;;;;;;;;;-1.25;100.00;100763.53;5028599;28;19924;-60
2023/01/26 02:45:40;;;;;;;;;;;;;;;-1.36;100.00;100769.38;5052499;28;19917;-59
2023/01/26 02:48:06;;;;;;;;;;;;;;;-1.33;100.00;100764.34;5052023;28;19997;-60
2023/01/26 02:50:32;;;;;;;;;;;;;;;-1.15;100.00;100768.63;5042127;28;20015;-60
2023/01/26 02:52:58;;;;;;;;;;;;;;;-1.14;100.00;100761.91;5033726;28;19920;-61
2023/01/26 02:57:51;;;;;;;;;;;;;;;-1.16;100.00;100761.06;5045758;28;19921;-60
2023/01/26 03:00:21;;;;;;;;;;;;;;;-1.28;100.00;100755.94;5033533;28;19999;-59
2023/01/26 03:02:48;;;;;;;;;;;;;;;-1.20;100.00;100765.25;5050662;28;19917;-60
2023/01/26 03:05:13;;;;;;;;;;;;;;;-1.09;100.00;100746.75;5052038;28;19924;-60
2023/01/26 03:07:38;;;;;;;;;;;;;;;-1.03;100.00;100745.13;5051158;28;20273;-60
2023/01/26 03:10:04;;;;;;;;;;;;;;;-1.07;100.00;100738.34;5043907;28;19925;-60
2023/01/26 03:12:29;;;;;;;;;;;;;;;-1.05;100.00;100740.91;5049443;28;19967;-61
2023/01/26 03:17:38;;;;;;;;;;;;;;;-0.96;100.00;100737.56;5051610;28;20285;-60
2023/01/26 03:28:21;;;;;;;;;;;;;;;-1.17;100.00;100724.03;5051799;28;20471;-59
2023/01/26 03:30:47;;;;;;;;;;;;;;;-1.22;100.00;100718.94;5041097;28;19971;-60
2023/01/26 03:33:12;;;;;;;;;;;;;;;-1.29;100.00;100722.28;5050751;28;20007;-59
2023/01/26 03:35:38;;;;;;;;;;;;;;;-1.30;100.00;100716.41;5052167;28;20329;-60
2023/01/26 03:38:03;;;;;;;;;;;;;;;-1.26;100.00;100711.38;5051161;28;19925;-59
2023/01/26 03:56:51;;;;;;;;;;;;;;;-0.89;100.00;100694.66;5055458;28;19924;-60
2023/01/26 03:59:19;;;;;;;;;;;;;;;-0.76;100.00;100692.97;5055149;28;19999;-60
2023/01/26 04:09:57;;;;;;;;;;;;;;;-0.95;100.00;100686.22;5055373;28;20360;-59
2023/01/26 04:12:22;;;;;;;;;;;;;;;-0.90;100.00;100677.78;5042456;28;19921;-59
2023/01/26 04:22:59;;;;;;;;;;;;;;;-0.69;100.00;100671.94;5053816;28;19928;-59
2023/01/26 04:25:25;;;;;;;;;;;;;;;-0.68;100.00;100678.69;5054009;28;19920;-60
2023/01/26 04:27:50;;;;;;;;;;;;;;;-0.67;100.00;100677.84;5054167;28;19917;-65
2023/01/26 04:30:15;;;;;;;;;;;;;;;-0.67;100.00;100675.31;5044128;28;19917;-59
2023/01/26 04:32:41;;;;;;;;;;;;;;;-0.67;100.00;100667.72;5036522;28;19916;-59
2023/01/26 04:35:07;;;;;;;;;;;;;;;-0.65;100.00;100665.19;5054697;28;19916;-59
2023/01/26 04:37:33;;;;;;;;;;;;;;;-0.65;100.00;100667.72;5032871;28;19953;-59
2023/01/26 04:39:58;;;;;;;;;;;;;;;-0.75;100.00;100664.34;5053233;28;20345;-59
2023/01/26 04:42:24;;;;;;;;;;;;;;;-0.86;100.00;100666.03;5042858;28;20400;-59
2023/01/26 04:44:50;;;;;;;;;;;;;;;-0.89;100.00;100664.34;5054373;28;19947;-58
2023/01/26 04:47:16;;;;;;;;;;;;;;;-0.82;100.00;100670.22;5032799;28;20371;-60
2023/01/26 04:49:41;;;;;;;;;;;;;;;-0.79;100.00;100666.84;5053000;28;19921;-61
2023/01/26 04:52:06;;;;;;;;;;;;;;;-0.83;100.00;100664.34;5042529;28;19920;-60
2023/01/26 04:54:31;;;;;;;;;;;;;;;-0.92;100.00;100658.44;5036281;28;20295;-59
2023/01/26 04:56:56;;;;;;;;;;;;;;;-0.84;100.00;100667.72;5053589;28;19970;-60
2023/01/26 04:59:21;;;;;;;;;;;;;;;-0.98;100.00;100661.78;5053823;28;19916;-60
2023/01/26 05:01:47;;;;;;;;;;;;;;;-0.98;100.00;100664.31;5015514;28;19921;-60
2023/01/26 05:04:12;;;;;;;;;;;;;;;-0.87;100.00;100659.28;5051755;28;19962;-60
2023/01/26 05:06:37;;;;;;;;;;;;;;;-0.80;100.00;100652.56;5053526;28;20273;-60
2023/01/26 05:09:03;;;;;;;;;;;;;;;-0.82;100.00;100660.13;5053910;28;19942;-60
2023/01/26 05:11:28;;;;;;;;;;;;;;;-0.92;100.00;100659.25;5042466;28;20435;-59
2023/01/26 05:13:53;;;;;;;;;;;;;;;-0.94;100.00;100657.56;5052936;28;19927;-60
2023/01/26 05:16:18;;;;;;;;;;;;;;;-1.03;100.00;100650.81;5054229;28;19921;-59
2023/01/26 05:18:44;;;;;;;;;;;;;;;-1.08;100.00;100657.56;5036144;28;20426;-59
2023/01/26 05:21:09;;;;;;;;;;;;;;;-1.05;100.00;100657.59;5043102;28;19928;-59
2023/01/26 05:23:34;;;;;;;;;;;;;;;-1.12;100.00;100656.69;5035126;28;19921;-59
2023/01/26 05:26:00;;;;;;;;;;;;;;;-1.24;100.00;100655.00;5035407;28;19927;-59
2023/01/26 05:28:25;;;;;;;;;;;;;;;-1.19;100.00;100650.81;5053776;28;19920;-59
2023/01/26 05:30:50;;;;;;;;;;;;;;;-1.14;100.00;100650.81;5043009;28;19924;-58
2023/01/26 05:33:20;;;;;;;;;;;;;;;-1.17;100.00;100655.84;5034957;28;19921;-59
2023/01/26 05:35:46;;;;;;;;;;;;;;;-1.09;100.00;100640.72;5035603;28;19917;-59
2023/01/26 05:38:14;;;;;;;;;;;;;;;-1.05;100.00;100644.94;5050319;28;19921;-59
2023/01/26 05:40:40;;;;;;;;;;;;;;;-1.20;100.00;100654.16;5033551;28;19921;-59
2023/01/26 05:43:07;;;;;;;;;;;;;;;-1.16;100.00;100650.81;5018784;28;20296;-59
2023/01/26 05:45:32;;;;;;;;;;;;;;;-1.31;100.00;100654.13;5043982;28;19921;-59
2023/01/26 05:47:57;;;;;;;;;;;;;;;-1.32;100.00;100654.13;5052497;28;19924;-60
2023/01/26 05:50:22;;;;;;;;;;;;;;;-1.31;100.00;100655.81;5024589;28;19925;-60
2023/01/26 05:52:48;;;;;;;;;;;;;;;-1.41;100.00;100660.00;5043509;28;19920;-59
2023/01/26 05:55:14;;;;;;;;;;;;;;;-1.47;100.00;100663.31;5038367;28;20005;-59
2023/01/26 05:57:39;;;;;;;;;;;;;;;-1.47;100.00;100659.97;5051853;28;19971;-59
2023/01/26 06:00:05;;;;;;;;;;;;;;;-1.48;100.00;100656.59;5042238;28;19925;-59
2023/01/26 06:02:33;;;;;;;;;;;;;;;-1.52;100.00;100664.16;5034702;28;19963;-59
2023/01/26 06:04:58;;;;;;;;;;;;;;;-1.55;100.00;100664.97;5052811;28;19962;-59
2023/01/26 06:07:25;;;;;;;;;;;;;;;-1.53;100.00;100659.94;5052027;28;20007;-60
2023/01/26 06:09:50;;;;;;;;;;;;;;;-1.43;100.00;100664.19;5034534;28;20395;-61
2023/01/26 06:12:16;;;;;;;;;;;;;;;-1.32;100.00;100666.75;5039939;28;19921;-59
2023/01/26 06:14:41;;;;;;;;;;;;;;;-1.36;100.00;100665.88;5052717;28;19917;-59
2023/01/26 06:17:07;;;;;;;;;;;;;;;-1.49;100.00;100664.16;5052091;28;21089;-61
2023/01/26 06:19:32;;;;;;;;;;;;;;;-1.45;100.00;100673.44;5052662;28;20347;-60
2023/01/26 06:21:57;;;;;;;;;;;;;;;-1.38;100.00;100675.13;5025866;28;19935;-59
2023/01/26 06:24:23;;;;;;;;;;;;;;;-1.38;100.00;100669.25;5042876;28;19924;-60
2023/01/26 06:26:48;;;;;;;;;;;;;;;-1.23;100.00;100670.97;5051815;28;20028;-60
2023/01/26 06:29:13;;;;;;;;;;;;;;;-1.29;100.00;100671.78;5051335;28;20317;-59
2023/01/26 06:31:39;;;;;;;;;;;;;;;-1.40;100.00;100681.88;5040975;28;20046;-60
2023/01/26 06:34:04;;;;;;;;;;;;;;;-1.33;100.00;100683.59;5030873;28;19917;-60
2023/01/26 06:36:29;;;;;;;;;;;;;;;-1.36;100.00;100675.16;5047967;28;20261;-59
2023/01/26 06:38:55;;;;;;;;;;;;;;;-1.48;100.00;100679.31;5052475;28;20283;-59
2023/01/26 06:41:20;;;;;;;;;;;;;;;-1.39;100.00;100686.09;5040198;28;19921;-59
2023/01/26 06:43:46;;;;;;;;;;;;;;;-1.40;100.00;100679.34;5052026;28;19924;-59
2023/01/26 06:46:11;;;;;;;;;;;;;;;-1.52;100.00;100694.44;5032310;28;19928;-59
2023/01/26 06:48:37;;;;;;;;;;;;;;;-1.69;100.00;100686.78;5052093;28;19920;-60
2023/01/26 06:51:14;;;;;;;;;;;;;;;-1.75;100.00;100692.59;5040257;28;20020;-59
2023/01/26 06:53:42;;;;;;;;;;;;;;;-1.55;100.00;100695.25;5030896;28;19916;-59
2023/01/26 06:56:07;;;;;;;;;;;;;;;-1.36;100.00;100693.66;5030006;28;20440;-61
2023/01/26 06:58:32;;;;;;;;;;;;;;;-1.27;100.00;100692.00;5044157;28;20376;-60
2023/01/26 07:00:58;;;;;;;;;;;;;;;-1.30;100.00;100698.72;5041133;28;19921;-60
2023/01/26 07:03:23;;;;;;;;;;;;;;;-1.42;100.00;100700.38;5027527;28;19921;-60
2023/01/26 07:05:49;;;;;;;;;;;;;;;-1.30;100.00;100702.94;5033258;28;19917;-63
2023/01/26 07:08:14;;;;;;;;;;;;;;;-1.45;100.00;100703.72;5027926;28;19916;-60
2023/01/26 07:10:39;;;;;;;;;;;;;;;-1.42;100.00;100698.66;5026109;28;20400;-60
2023/01/26 07:13:05;;;;;;;;;;;;;;;-1.43;100.00;100711.28;5034485;28;19924;-60
2023/01/26 07:15:30;;;;;;;;;;;;;;;-1.33;100.00;100710.47;5032845;28;20295;-59
2023/01/26 07:17:56;;;;;;;;;;;;;;;-1.40;100.00;100711.28;5032050;28;20031;-59
2023/01/26 07:20:22;;;;;;;;;;;;;;;-1.42;100.00;100711.28;5028052;28;19920;-60
2023/01/26 07:22:47;;;;;;;;;;;;;;;-1.46;100.00;100712.94;5038749;28;19921;-61
2023/01/26 07:25:12;;;;;;;;;;;;;;;-1.44;100.00;100723.03;5037029;28;19921;-61
2023/01/26 07:27:37;;;;;;;;;;;;;;;-1.34;100.00;100721.41;5034844;28;19921;-59
2023/01/26 07:30:03;;;;;;;;;;;;;;;-1.37;100.00;100722.25;5030086;28;19921;-59
2023/01/26 07:32:28;;;;;;;;;;;;;;;-1.54;100.00;100723.84;5040523;28;19921;-59
2023/01/26 07:34:53;;;;;;;;;;;;;;;-1.46;100.00;100725.56;5050842;28;19924;-61
2023/01/26 07:37:18;;;;;;;;;;;;;;;-1.49;100.00;100725.56;5042607;28;20287;-59
2023/01/26 07:39:44;;;;;;;;;;;;;;;-1.48;100.00;100722.22;5051386;28;20908;-60
2023/01/26 07:42:09;;;;;;;;;;;;;;;-1.40;100.00;100734.88;5039003;28;20041;-59
2023/01/26 07:44:35;;;;;;;;;;;;;;;-1.58;100.00;100724.69;5049814;28;19916;-59
2023/01/26 07:47:00;;;;;;;;;;;;;;;-1.63;100.00;100725.47;5040559;28;20011;-60
2023/01/26 07:49:25;;;;;;;;;;;;;;;-1.63;100.00;100730.53;5046928;28;20027;-60
2023/01/26 07:51:51;;;;;;;;;;;;;;;-1.41;100.00;100732.34;5015681;28;19925;-64
2023/01/26 07:54:16;;;;;;;;;;;;;;;-1.33;100.00;100728.16;5037645;28;19917;-60
2023/01/26 07:56:43;;;;;;;;;;;;;;;-1.25;100.00;100723.13;5044735;28;20004;-60
2023/01/26 07:59:09;;;;;;;;;;;;;;;-1.26;100.00;100722.31;5027695;28;20261;-60
2023/01/26 08:01:34;;;;;;;;;;;;;;;-1.32;100.00;100730.69;5009090;28;19971;-61
2023/01/26 08:03:59;;;;;;;;;;;;;;;-1.38;100.00;100729.81;5046384;28;19920;-60
2023/01/26 08:06:25;;;;;;;;;;;;;;;-1.25;100.00;100728.19;5047130;28;20353;-61
2023/01/26 08:08:50;;;;;;;;;;;;;;;-1.23;100.00;100729.88;5046927;28;19916;-62
2023/01/26 08:11:16;;;;;;;;;;;;;;;-1.40;100.00;100731.47;5034624;28;19928;-60
2023/01/26 08:13:41;;;;;;;;;;;;;;;-1.33;100.00;100733.19;5045495;28;19924;-60
2023/01/26 08:16:11;;;;;;;;;;;;;;;-1.30;100.00;100735.75;5034691;28;20046;-60
2023/01/26 08:18:40;;;;;;;;;;;;;;;-1.30;100.00;100738.28;5039511;28;19928;-60
2023/01/26 08:21:05;;;;;;;;;;;;;;;-1.18;100.00;100732.44;5019492;28;19956;-60
2023/01/26 08:23:30;;;;;;;;;;;;;;;-1.20;100.00;100734.13;5044773;28;19972;-60
2023/01/26 08:25:59;;;;;;;;;;;;;;;-1.24;100.00;100739.97;5025149;28;19921;-61
2023/01/26 08:28:24;;;;;;;;;;;;;;;-1.27;100.00;100742.50;5046832;28;20020;-60
2023/01/26 08:30:50;;;;;;;;;;;;;;;-1.32;100.00;100742.47;5039928;28;19996;-60
2023/01/26 08:33:15;;;;;;;;;;;;;;;-1.41;100.00;100735.69;5051459;28;19924;-60
2023/01/26 08:35:40;;;;;;;;;;;;;;;-1.39;100.00;100743.28;5046443;28;19921;-60
2023/01/26 08:38:05;;;;;;;;;;;;;;;-1.28;100.00;100743.34;5049941;28;20442;-59
2023/01/26 08:40:30;;;;;;;;;;;;;;;-1.31;100.00;100750.03;5044006;28;19921;-60
2023/01/26 08:42:58;;;;;;;;;;;;;;;-1.21;100.00;100738.31;5051278;28;19927;-60
2023/01/26 08:45:23;;;;;;;;;;;;;;;-1.23;100.00;100734.91;5054340;28;20011;-60
2023/01/26 08:47:50;;;;;;;;;;;;;;;-1.49;100.00;100737.31;5054012;28;20015;-60
2023/01/26 08:50:15;;;;;;;;;;;;;;;-1.62;100.00;100734.72;5025643;28;19928;-60
2023/01/26 08:52:40;;;;;;;;;;;;;;;-1.49;100.00;100740.72;5050210;28;19916;-60
2023/01/26 08:55:05;;;;;;;;;;;;;;;-1.46;100.00;100747.47;5054610;28;19962;-60
2023/01/26 08:57:31;;;;;;;;;;;;;;;-1.58;100.00;100745.69;5054083;28;20340;-60
2023/01/26 08:59:56;;;;;;;;;;;;;;;-1.43;100.00;100744.94;5053960;28;19917;-60
2023/01/26 09:02:21;;;;;;;;;;;;;;;-1.39;100.00;100751.69;5038407;28;20475;-60
2023/01/26 09:04:46;;;;;;;;;;;;;;;-1.35;100.00;100745.81;5035639;28;19962;-59
2023/01/26 09:07:12;;;;;;;;;;;;;;;-1.32;100.00;100742.47;5052211;28;19967;-59
2023/01/26 09:09:37;;;;;;;;;;;;;;;-1.32;100.00;100748.34;5044631;28;19928;-60
2023/01/26 09:12:03;;;;;;;;;;;;;;;-1.40;100.00;100736.53;5023330;28;19931;-62
2023/01/26 09:14:28;;;;;;;;;;;;;;;-1.48;100.00;100739.88;5046035;28;20388;-61
2023/01/26 09:16:53;;;;;;;;;;;;;;;-1.41;100.00;100738.22;5026098;28;19928;-59
2023/01/26 09:19:18;;;;;;;;;;;;;;;-1.46;100.00;100744.94;5053745;28;19924;-59
2023/01/26 09:21:44;;;;;;;;;;;;;;;-1.42;100.00;100744.09;5039064;28;19925;-59
2023/01/26 09:24:09;;;;;;;;;;;;;;;-1.28;100.00;100750.91;5035545;28;20611;-60
2023/01/26 09:26:34;;;;;;;;;;;;;;;-1.27;100.00;100755.13;5052781;28;19917;-60
2023/01/26 09:29:00;;;;;;;;;;;;;;;-1.10;100.00;100767.78;5053674;28;19927;-60
2023/01/26 09:31:25;;;;;;;;;;;;;;;-1.03;100.00;100751.84;5038932;28;20414;-60
2023/01/26 09:33:50;;;;;;;;;;;;;;;-1.19;100.00;100761.03;5042566;28;19916;-63
2023/01/26 09:36:15;;;;;;;;;;;;;;;-1.15;100.00;100762.75;5043321;28;19923;-59
2023/01/26 09:38:40;;;;;;;;;;;;;;;-1.12;100.00;100761.91;5042691;28;20379;-60
2023/01/26 09:41:12;;;;;;;;;;;;;;;-1.18;100.00;100765.25;5037973;28;19921;-60
2023/01/26 09:43:46;;;;;;;;;;;;;;;-1.09;100.00;100757.72;5035332;28;19921;-60
2023/01/26 09:46:30;;;;;;;;;;;;;;;-1.06;100.00;100750.16;5052617;28;19927;-60
2023/01/26 09:49:24;;;;;;;;;;;;;;;-0.93;100.00;100755.25;5052822;28;19966;-60
2023/01/26 09:51:55;;;;;;;;;;;;;;;-1.03;100.00;100764.47;4935334;29;19954;-59
2023/01/26 09:54:41;;;;;;;;;;;;;;;-1.30;100.00;100758.47;4952816;29;20036;-59
2023/01/26 09:57:15;;;;;;;;;;;;;;;-1.14;100.00;100754.34;4952316;29;19918;-60
2023/01/26 09:59:47;;;;;;;;;;;;;;;-1.06;100.00;100749.31;4944912;28;19953;-61
2023/01/26 10:02:27;;;;;;;;;;;;;;;-1.09;100.00;100752.69;4925822;28;19946;-62
2023/01/26 10:04:55;;;;;;;;;;;;;;;-1.18;100.00;100747.56;4951846;28;20001;-61
2023/01/26 10:07:21;;;;;;;;;;;;;;;-1.27;100.00;100752.59;4951478;29;19918;-60
2023/01/26 10:09:50;;;;;;;;;;;;;;;-1.15;100.00;100752.66;4939302;29;20290;-60
2023/01/26 10:12:21;;;;;;;;;;;;;;;-0.90;100.00;100745.16;4941736;28;20325;-60
2023/01/26 10:14:52;;;;;;;;;;;;;;;-0.88;100.00;100744.34;4952128;29;19927;-61
2023/01/26 10:17:26;;;;;;;;;;;;;;;-1.18;100.00;100752.63;4950629;28;19998;-60
2023/01/26 10:19:54;;;;;;;;;;;;;;;-1.22;100.00;100748.41;4932184;29;19922;-60
2023/01/26 10:22:30;;;;;;;;;;;;;;;-1.15;100.00;100752.66;4954373;28;19922;-60
2023/01/26 10:24:56;;;;;;;;;;;;;;;-0.99;100.00;100739.22;4946981;29;19929;-61
2023/01/26 10:27:21;;;;;;;;;;;;;;;-0.96;100.00;100738.41;4965463;28;19916;-61
2023/01/26 10:29:46;;;;;;;;;;;;;;;-0.95;100.00;100727.47;5051675;28;19943;-60
2023/01/26 10:32:18;;;;;;;;;;;;;;;-0.85;100.00;100730.88;5020438;28;19936;-60
2023/01/26 10:34:45;;;;;;;;;;;;;;;-0.71;100.00;100733.41;5051227;28;19923;-60
2023/01/26 10:37:25;;;;;;;;;;;;;;;-0.60;100.00;100725.88;5033781;28;19934;-60
2023/01/26 10:40:00;;;;;;;;;;;;;;;-0.59;100.00;100725.84;5052014;28;20304;-61
2023/01/26 10:42:27;;;;;;;;;;;;;;;-0.85;100.00;100724.13;5020548;28;19928;-60
2023/01/26 10:44:52;;;;;;;;;;;;;;;-1.05;100.00;100723.22;5049866;28;19924;-60
2023/01/26 10:47:18;;;;;;;;;;;;;;;-1.11;100.00;100725.75;5051795;28;19921;-60
2023/01/26 10:49:44;;;;;;;;;;;;;;;-1.19;100.00;100718.97;5034079;28;19924;-60
2023/01/26 10:52:16;;;;;;;;;;;;;;;-1.12;100.00;100717.31;5035051;28;20015;-60
2023/01/26 10:54:43;;;;;;;;;;;;;;;-0.92;100.00;100722.41;5051462;28;19962;-60
2023/01/26 10:57:14;;;;;;;;;;;;;;;-0.95;100.00;100717.34;5031491;28;19917;-60
2023/01/26 10:59:48;;;;;;;;;;;;;;;-0.87;100.00;100724.94;5050684;28;19920;-61
2023/01/26 11:02:13;;;;;;;;;;;;;;;-0.78;100.00;100714.88;5024484;28;19926;-61
2023/01/26 11:04:39;;;;;;;;;;;;;;;-0.91;100.00;100703.06;5032453;28;19971;-61
2023/01/26 11:07:24;;;;;;;;;;;;;;;-0.85;100.00;100698.03;5043964;28;19920;-61
2023/01/26 11:09:50;;;;;;;;;;;;;;;-0.99;100.00;100703.03;5041552;28;19917;-61
2023/01/26 11:12:20;;;;;;;;;;;;;;;-0.77;100.00;100700.56;5033443;28;19925;-61
2023/01/26 11:15:02;;;;;;;;;;;;;;;-0.58;100.00;100697.22;5041924;28;20410;-63
2023/01/26 11:17:36;;;;;;;;;;;;;;;-0.60;100.00;100688.78;5033140;28;20392;-61
2023/01/26 11:20:10;;;;;;;;;;;;;;;-0.58;100.00;100686.25;5042316;28;19928;-60
2023/01/26 11:22:57;;;;;;;;;;;;;;;-0.58;100.00;100692.16;5004696;28;19929;-62
2023/01/26 11:25:36;;;;;;;;;;;;;;;-0.76;100.00;100680.34;5021631;28;19925;-62
2023/01/26 11:28:05;;;;;;;;;;;;;;;-0.55;100.00;100671.94;5029786;28;19961;-60
2023/01/26 11:30:30;;;;;;;;;;;;;;;-0.53;100.00;100680.38;5015782;28;19931;-61
2023/01/26 11:32:58;;;;;;;;;;;;;;;-0.68;100.00;100673.63;5028673;28;19921;-61
2023/01/26 11:35:26;;;;;;;;;;;;;;;-0.58;100.00;100671.94;5031352;28;19936;-62
2023/01/26 11:38:02;;;;;;;;;;;;;;;-0.49;100.00;100671.09;5030783;28;20007;-61
2023/01/26 11:40:30;;;;;;;;;;;;;;;-0.66;100.00;100674.47;5016533;28;20448;-62
2023/01/26 11:43:15;;;;;;;;;;;;;;;-0.25;100.00;100675.34;5042868;28;19964;-61
2023/01/26 11:45:55;;;;;;;;;;;;;;;-0.37;100.00;100677.88;5031430;28;19952;-60
2023/01/26 11:48:30;;;;;;;;;;;;;;;-0.36;100.00;100667.75;5028151;28;20017;-60
2023/01/26 11:51:05;;;;;;;;;;;;;;;-0.57;100.00;100666.06;5023861;28;20003;-64
2023/01/26 11:53:36;;;;;;;;;;;;;;;-0.50;100.00;100650.06;5035123;28;19924;-61
2023/01/26 11:56:12;;;;;;;;;;;;;;;-0.64;100.00;100659.31;5021984;28;19956;-61
2023/01/26 11:58:37;;;;;;;;;;;;;;;-0.61;100.00;100661.81;5029726;28;20015;-62
2023/01/26 12:01:08;;;;;;;;;;;;;;;-0.52;100.00;100656.78;5009890;28;20055;-61
2023/01/26 12:03:33;;;;;;;;;;;;;;;-0.59;100.00;100652.56;5020387;28;19917;-61
2023/01/26 12:06:04;;;;;;;;;;;;;;;-0.67;100.00;100649.19;5018803;28;19928;-62
2023/01/26 12:08:40;;;;;;;;;;;;;;;-0.85;100.00;100648.34;5034469;28;19917;-62
2023/01/26 12:11:21;;;;;;;;;;;;;;;-0.82;100.00;100647.50;5021554;28;19924;-60
2023/01/26 12:13:49;;;;;;;;;;;;;;;-0.85;100.00;100632.34;5037481;28;20070;-60
2023/01/26 12:16:24;;;;;;;;;;;;;;;-0.73;100.00;100632.34;5024306;28;20290;-59
2023/01/26 12:19:03;;;;;;;;;;;;;;;-0.56;100.00;100627.31;5017423;28;20269;-60
2023/01/26 12:21:30;;;;;;;;;;;;;;;-0.51;100.00;100629.81;5030077;28;20321;-60
2023/01/26 12:24:01;;;;;;;;;;;;;;;-0.56;100.00;100629.84;5039840;28;19917;-60
2023/01/26 12:26:29;;;;;;;;;;;;;;;-0.72;100.00;100629.00;5053839;28;19917;-60
2023/01/26 12:29:07;;;;;;;;;;;;;;;-0.62;100.00;100622.25;5055139;28;20007;-60
2023/01/26 12:31:52;;;;;;;;;;;;;;;-0.68;100.00;100612.16;5042239;28;19921;-60
2023/01/26 12:34:23;;;;;;;;;;;;;;;-0.70;100.00;100617.19;5054238;28;19921;-61
2023/01/26 12:36:48;;;;;;;;;;;;;;;-0.74;100.00;100607.09;5046170;28;20097;-61
2023/01/26 12:39:19;;;;;;;;;;;;;;;-0.56;100.00;100607.09;5048864;28;19974;-61
2023/01/26 12:42:03;;;;;;;;;;;;;;;-0.63;100.00;100599.50;5042027;28;20405;-60
2023/01/26 12:44:37;;;;;;;;;;;;;;;-0.56;100.00;100589.41;5046547;28;19925;-62
2023/01/26 12:47:12;;;;;;;;;;;;;;;-0.53;100.00;100594.44;5044211;28;19929;-61
2023/01/26 12:50:04;;;;;;;;;;;;;;;-0.44;100.00;100583.47;5051189;28;20432;-62
2023/01/26 12:52:35;;;;;;;;;;;;;;;-0.36;100.00;100591.03;4963588;28;19925;-61
2023/01/26 12:55:18;;;;;;;;;;;;;;;-0.25;100.00;100583.44;4985309;28;19926;-61
2023/01/26 12:57:49;;;;;;;;;;;;;;;-0.02;100.00;100589.28;4985831;28;20357;-62
2023/01/26 13:00:19;;;;;;;;;;;;;;;-0.13;100.00;100582.59;4976703;28;19953;-61
2023/01/26 13:02:45;;;;;;;;;;;;;;;-0.33;100.00;100591.88;4983125;28;20021;-60
2023/01/26 13:05:22;;;;;;;;;;;;;;;-0.35;100.00;100590.22;4991743;28;20344;-61
2023/01/26 13:07:47;;;;;;;;;;;;;;;-0.36;100.00;100584.31;4990456;28;20627;-65
2023/01/26 13:10:12;;;;;;;;;;;;;;;-0.21;100.00;100590.16;4971732;28;19930;-62
2023/01/26 13:12:53;;;;;;;;;;;;;;;-0.40;100.00;100591.91;4971981;28;19918;-61
2023/01/26 13:15:20;;;;;;;;;;;;;;;-0.34;100.00;100592.72;4992283;28;20021;-61
2023/01/26 13:17:48;;;;;;;;;;;;;;;-0.34;100.00;100595.25;4991574;28;19944;-60